createdAt,value
2023-04-10T00:05:29.587Z,85.5
2023-04-10T00:25:29.711Z,85.7
2023-04-10T00:45:29.859Z,86.8
2023-04-10T01:05:29.741Z,87.6
2023-04-10T01:25:29.676Z,88.4
2023-04-10T01:45:29.905Z,88.5
2023-04-10T02:05:29.775Z,89.2
2023-04-10T02:25:29.791Z,89.6
2023-04-10T02:45:29.877Z,89.8
2023-04-10T03:05:30.003Z,90.5
2023-04-10T03:25:30.082Z,90.7
2023-04-10T03:45:30.070Z,91.3
2023-04-10T04:05:30.112Z,91.8
2023-04-10T04:25:30.302Z,91.6
2023-04-10T04:45:30.160Z,91.6
2023-04-10T05:05:30.279Z,91.9
2023-04-10T05:25:30.917Z,91.9
2023-04-10T05:45:30.377Z,92
2023-04-10T06:05:30.393Z,91.2
2023-04-10T06:25:30.460Z,90.3
2023-04-10T06:45:30.421Z,88.8
2023-04-10T07:05:31.483Z,85.6
2023-04-10T07:25:30.613Z,81.9
2023-04-10T07:45:30.569Z,78.4
2023-04-10T08:05:30.618Z,71.9
2023-04-10T08:25:30.897Z,67.8
2023-04-10T08:45:30.757Z,62.8
2023-04-10T09:05:30.724Z,59.7
2023-04-10T09:25:30.807Z,55.6
2023-04-10T09:45:30.860Z,53.7
2023-04-10T10:05:30.825Z,51.1
2023-04-10T10:25:30.959Z,46.6
2023-04-10T10:45:31.098Z,42.3
2023-04-10T11:05:31.022Z,39.7
2023-04-10T11:25:30.864Z,36.8
2023-04-10T12:05:31.079Z,38.2
2023-04-10T12:25:31.076Z,37.1
2023-04-10T12:45:31.062Z,36.3
2023-04-10T13:05:31.070Z,39.4
2023-04-10T13:25:31.208Z,36.6
2023-04-10T13:45:31.122Z,34.9
2023-04-10T14:25:31.237Z,38.7
2023-04-10T14:45:31.294Z,39
2023-04-10T15:05:31.184Z,37.6
2023-04-10T15:25:31.345Z,39.5
2023-04-10T15:45:31.252Z,39.7
2023-04-10T16:05:31.407Z,41.1
2023-04-10T16:25:31.637Z,42.1
2023-04-10T16:45:31.351Z,42.5
2023-04-10T17:05:31.517Z,43.3
2023-04-10T17:25:31.509Z,44
2023-04-10T17:45:32.594Z,43.4
2023-04-10T18:05:31.513Z,43.9
2023-04-10T18:25:31.614Z,45.3
2023-04-10T18:45:31.699Z,46.1
2023-04-10T19:05:31.692Z,47.7
2023-04-10T19:25:31.735Z,48.9
2023-04-10T19:45:31.681Z,50.1
2023-04-10T20:05:31.724Z,51.7
2023-04-10T20:25:31.748Z,53.6
2023-04-10T20:45:31.977Z,54.5
2023-04-10T21:05:31.841Z,55.4
2023-04-10T21:25:31.905Z,55.2
2023-04-10T21:45:31.996Z,55.6
2023-04-10T22:05:32.012Z,54.7
2023-04-10T22:25:32.201Z,55.1
2023-04-10T22:45:32.142Z,55.2
2023-04-10T23:05:32.044Z,54
2023-04-10T23:25:32.067Z,53.7
2023-04-10T23:45:32.145Z,53.9
